Roche, United Kingdom
Current Conditions -  °F | °C
As of 2:20 PM on Sunday 21 Dec 2014 (Local Time) from EGHQ Reporting Station
Overcast Overcast  
Wind Chill: 10°   Ceiling: 800
Heat Index: 10°   Visibility: 6mi
Dew Point:   Wind: 20mph
Humidity: 94%   Direction: 230°SW
Pressure: 30.36"   Gusts: NA
Location:  50.41°N, 4.83°W
Report Text: EGHQ 211420Z 23017KT 9999 BKN008 OVC018 10/09 Q1028
Loading
Personal Weather Stations






























Interactive Weather Map New forecast layout! Learn more

10-Day Weather Forecast

Advertisements
Track Severe Weather on mobile